Time;durP1;ratioP1;P1;durP2;ratioP2;P2;SDS_P1;SDS_P2;PMS_P1;PMS_P2;Temp;Humidity;BMP_temperature;BMP_pressure;BME280_temperature;BME280_humidity;BME280_pressure;Samples;Min_cycle;Max_cycle;Signal;HPM_P1;HPM_P2
2023/03/09 00:00:10;;;;;;;;;;;;;;;10.87;65.40;98943.34;289669;33;5590;-74
2023/03/09 00:00:22;;;;;;;;;;;;;;;10.86;65.50;98949.53;285311;34;8395;-74
2023/03/09 00:00:32;;;;;;;;;;;;;;;10.86;65.51;98944.28;284741;34;8872;-73
2023/03/09 00:00:42;;;;;;;;;;;;;;;10.85;65.67;98954.84;284948;34;5121;-74
2023/03/09 00:00:53;;;;;;;;;;;;;;;10.86;65.53;98951.28;283237;34;7970;-74
2023/03/09 00:01:04;;;;;;;;;;;;;;;10.85;65.67;98945.22;281666;34;8552;-74
2023/03/09 00:01:18;;;;;;;;;;;;;;;10.85;65.66;98944.38;280785;34;8745;-74
2023/03/09 00:01:28;;;;;;;;;;;;;;;10.84;65.33;98938.28;282288;34;4990;-74
2023/03/09 00:01:38;;;;;;;;;;;;;;;10.87;65.50;98942.50;277810;35;4240;-73
2023/03/09 00:01:53;;;;;;;;;;;;;;;10.88;65.38;98942.44;277521;35;6532;-73
2023/03/09 00:02:04;;;;;;;;;;;;;;;10.89;65.04;98941.50;273708;35;7182;-73
2023/03/09 00:03:37;;;;;;;;;;;;;;;10.93;63.65;98948.28;2481945;27;19937;-72
2023/03/09 00:03:47;;;;;;;;;;;;;;;10.92;63.36;98945.75;349521;28;3867;-73
2023/03/09 00:03:58;;;;;;;;;;;;;;;10.91;63.44;98944.03;349094;28;3157;-73
2023/03/09 00:04:12;;;;;;;;;;;;;;;10.90;63.51;98937.13;346665;28;4437;-72
2023/03/09 00:04:22;;;;;;;;;;;;;;;10.88;63.68;98939.81;348583;28;4199;-72
2023/03/09 00:04:32;;;;;;;;;;;;;;;10.88;63.35;98945.06;348591;28;4827;-72
2023/03/09 00:04:42;;;;;;;;;;;;;;;10.89;63.64;98943.28;350332;28;2039;-72
2023/03/09 00:04:53;;;;;;;;;;;;;;;10.89;63.47;98938.88;348520;28;4907;-72
2023/03/09 00:05:03;;;;;;;;;;;;;;;10.89;63.38;98941.50;348446;28;3911;-72
2023/03/09 00:05:16;;;;;;;;;;;;;;;10.88;63.69;98942.44;346105;28;4924;-74
2023/03/09 00:05:26;;;;;;;;;;;;;;;10.87;63.62;98942.50;343430;28;4194;-73
2023/03/09 00:05:36;;;;;;;;;;;;;;;10.88;63.51;98945.06;347350;28;5042;-73
2023/03/09 00:05:53;;;;;;;;;;;;;;;10.88;63.49;98945.06;348457;28;2702;-73
2023/03/09 00:06:03;;;;;;;;;;;;;;;10.89;63.36;98940.66;347384;28;3909;-72
2023/03/09 00:06:13;;;;;;;;;;;;;;;10.88;63.63;98949.44;347001;28;4956;-73
2023/03/09 00:06:24;;;;;;;;;;;;;;;10.87;63.61;98947.75;348596;28;3898;-73
2023/03/09 00:06:34;;;;;;;;;;;;;;;10.87;63.79;98951.22;347168;28;5097;-73
2023/03/09 00:06:44;;;;;;;;;;;;;;;10.87;63.78;98948.59;349892;28;3904;-73
2023/03/09 00:06:54;;;;;;;;;;;;;;;10.87;64.16;98951.22;348626;28;4949;-73
2023/03/09 00:07:05;;;;;;;;;;;;;;;10.86;64.29;98946.06;347813;28;1428;-73
2023/03/09 00:07:15;;;;;;;;;;;;;;;10.84;64.41;98951.38;344874;28;4828;-73
2023/03/09 00:07:25;;;;;;;;;;;;;;;10.83;64.37;98949.69;346269;28;5304;-73
2023/03/09 00:07:35;;;;;;;;;;;;;;;10.83;64.49;98952.31;344427;28;4492;-73
2023/03/09 00:07:46;;;;;;;;;;;;;;;10.83;64.39;98951.47;346160;28;3239;-73
2023/03/09 00:07:56;;;;;;;;;;;;;;;10.82;64.42;98950.63;341569;28;4333;-72
2023/03/09 00:08:06;;;;;;;;;;;;;;;10.83;64.40;98946.25;344928;28;1387;-73
2023/03/09 00:08:16;;;;;;;;;;;;;;;10.82;64.17;98948.03;344291;28;2596;-73
2023/03/09 00:08:29;;;;;;;;;;;;;;;10.83;64.06;98949.69;342232;28;4993;-72
2023/03/09 00:08:40;;;;;;;;;;;;;;;10.83;64.13;98952.31;342262;28;3807;-72
2023/03/09 00:08:50;;;;;;;;;;;;;;;10.85;63.80;98944.38;345467;28;2915;-73
2023/03/09 00:09:00;;;;;;;;;;;;;;;10.86;63.77;98951.28;346751;28;3069;-74
2023/03/09 00:09:11;;;;;;;;;;;;;;;10.85;63.71;98939.97;347962;28;1003;-74
2023/03/09 00:09:21;;;;;;;;;;;;;;;10.86;63.71;98951.28;345211;28;1309;-73
2023/03/09 00:09:32;;;;;;;;;;;;;;;10.87;63.68;98942.50;346507;28;1139;-73
2023/03/09 00:09:42;;;;;;;;;;;;;;;10.86;63.69;98946.91;342192;28;5001;-73
2023/03/09 00:09:52;;;;;;;;;;;;;;;10.86;63.61;98949.53;343750;28;1283;-73
2023/03/09 00:10:03;;;;;;;;;;;;;;;10.86;63.43;98949.53;340277;28;4922;-73
2023/03/09 00:10:13;;;;;;;;;;;;;;;10.86;63.50;98941.66;341243;28;1328;-73
2023/03/09 00:10:23;;;;;;;;;;;;;;;10.85;63.47;98942.59;339210;28;4770;-74
2023/03/09 00:10:34;;;;;;;;;;;;;;;10.86;63.37;98952.13;340344;28;5165;-73
2023/03/09 00:10:44;;;;;;;;;;;;;;;10.86;63.56;98944.28;338862;28;4053;-72
2023/03/09 00:10:55;;;;;;;;;;;;;;;10.87;63.62;98947.75;343288;28;2698;-72
2023/03/09 00:11:05;;;;;;;;;;;;;;;10.86;63.87;98952.13;342032;28;3978;-73
2023/03/09 00:11:16;;;;;;;;;;;;;;;10.87;63.87;98947.75;345355;28;5502;-73
2023/03/09 00:11:26;;;;;;;;;;;;;;;10.88;63.91;98954.69;343422;28;4579;-73
2023/03/09 00:11:39;;;;;;;;;;;;;;;10.87;64.11;98948.59;344499;28;2831;-73
2023/03/09 00:11:49;;;;;;;;;;;;;;;10.86;63.97;98952.13;346718;28;4834;-72
2023/03/09 00:11:59;;;;;;;;;;;;;;;10.85;63.89;98945.22;348408;28;1302;-73
2023/03/09 00:12:09;;;;;;;;;;;;;;;10.86;63.85;98946.06;345882;28;4694;-74
2023/03/09 00:12:22;;;;;;;;;;;;;;;10.85;63.78;98945.22;345978;28;1646;-73
2023/03/09 00:12:32;;;;;;;;;;;;;;;10.85;63.77;98945.22;341903;28;5047;-73
2023/03/09 00:12:43;;;;;;;;;;;;;;;10.86;63.89;98935.59;342519;28;3726;-73
2023/03/09 00:12:53;;;;;;;;;;;;;;;10.85;63.84;98937.34;342748;28;3172;-74
2023/03/09 00:13:03;;;;;;;;;;;;;;;10.86;63.85;98939.06;344883;28;3980;-74
2023/03/09 00:13:13;;;;;;;;;;;;;;;10.86;64.03;98939.06;343551;28;3440;-73
2023/03/09 00:13:24;;;;;;;;;;;;;;;10.85;64.01;98945.22;343899;28;891;-74
2023/03/09 00:13:34;;;;;;;;;;;;;;;10.83;63.97;98941.81;341747;28;4365;-73
2023/03/09 00:13:45;;;;;;;;;;;;;;;10.82;64.08;98950.63;343344;28;4127;-73
2023/03/09 00:13:55;;;;;;;;;;;;;;;10.83;64.32;98946.25;341794;28;4896;-73
2023/03/09 00:14:05;;;;;;;;;;;;;;;10.82;63.99;98949.78;336768;29;3838;-73
2023/03/09 00:14:16;;;;;;;;;;;;;;;10.80;64.22;98942.03;333187;29;3108;-73
2023/03/09 00:14:26;;;;;;;;;;;;;;;10.80;64.35;98944.63;331859;29;2220;-72
2023/03/09 00:14:36;;;;;;;;;;;;;;;10.80;64.05;98941.19;331867;29;5110;-71
2023/03/09 00:14:46;;;;;;;;;;;;;;;10.79;64.20;98948.19;330548;29;4012;-73
2023/03/09 00:14:57;;;;;;;;;;;;;;;10.79;64.27;98942.94;331404;29;4877;-74
2023/03/09 00:15:07;;;;;;;;;;;;;;;10.80;63.95;98944.63;331809;29;3934;-72
2023/03/09 00:15:17;;;;;;;;;;;;;;;10.80;64.09;98941.19;328474;29;5012;-73
2023/03/09 00:15:28;;;;;;;;;;;;;;;10.80;64.14;98944.63;329629;29;1760;-73
2023/03/09 00:15:38;;;;;;;;;;;;;;;10.80;63.88;98946.41;327206;29;3442;-73
2023/03/09 00:15:51;;;;;;;;;;;;;;;10.79;63.79;98944.72;330794;29;5038;-73
2023/03/09 00:16:10;;;;;;;;;;;;;;;10.76;63.92;98943.09;331316;29;5093;-73
2023/03/09 00:16:21;;;;;;;;;;;;;;;10.79;63.72;98950.81;327644;29;5021;-73
2023/03/09 00:16:31;;;;;;;;;;;;;;;10.79;63.54;98937.72;332394;29;2678;-73
2023/03/09 00:16:41;;;;;;;;;;;;;;;10.80;63.39;98936.78;329462;29;5002;-73
2023/03/09 00:16:52;;;;;;;;;;;;;;;10.80;63.55;98936.78;332165;29;847;-73
2023/03/09 00:17:02;;;;;;;;;;;;;;;10.79;63.36;98935.09;328693;29;4570;-73
2023/03/09 00:17:12;;;;;;;;;;;;;;;10.80;63.23;98936.78;330782;29;1299;-73
2023/03/09 00:17:22;;;;;;;;;;;;;;;10.81;63.11;98941.09;324668;30;4555;-73
2023/03/09 00:17:33;;;;;;;;;;;;;;;10.82;62.98;98940.16;324762;30;2134;-73
2023/03/09 00:17:44;;;;;;;;;;;;;;;10.82;62.80;98940.16;321186;30;5046;-74
2023/03/09 00:17:54;;;;;;;;;;;;;;;10.82;63.24;98934.94;326888;30;4001;-74
2023/03/09 00:18:04;;;;;;;;;;;;;;;10.83;62.88;98943.63;320963;30;3026;-73
2023/03/09 00:18:14;;;;;;;;;;;;;;;10.82;62.83;98940.16;324368;29;3245;-73
2023/03/09 00:18:25;;;;;;;;;;;;;;;10.81;62.80;98933.25;323829;30;4793;-73
2023/03/09 00:18:35;;;;;;;;;;;;;;;10.81;62.92;98937.63;324914;30;3891;-73
2023/03/09 00:18:45;;;;;;;;;;;;;;;10.81;62.89;98935.00;324628;30;3307;-73
2023/03/09 00:18:57;;;;;;;;;;;;;;;10.80;63.04;98936.78;323069;30;3591;-76
2023/03/09 00:19:07;;;;;;;;;;;;;;;10.80;62.82;98934.16;319367;30;5029;-72
2023/03/09 00:19:26;;;;;;;;;;;;;;;10.81;63.03;98938.47;322038;30;3989;-72
2023/03/09 00:19:36;;;;;;;;;;;;;;;10.81;62.68;98935.00;319929;30;1994;-74
2023/03/09 00:19:47;;;;;;;;;;;;;;;10.81;62.88;98932.41;318816;30;4805;-75
2023/03/09 00:20:00;;;;;;;;;;;;;;;10.82;62.96;98936.72;317467;30;3587;-74
2023/03/09 00:20:17;;;;;;;;;;;;;;;10.83;62.86;98931.34;315436;31;5071;-74
2023/03/09 00:20:27;;;;;;;;;;;;;;;10.85;62.75;98932.13;312083;31;5191;-71
2023/03/09 00:20:37;;;;;;;;;;;;;;;10.84;62.75;98937.44;316997;31;5107;-73
2023/03/09 00:20:48;;;;;;;;;;;;;;;10.85;62.98;98931.28;316813;31;4570;-73
2023/03/09 00:20:58;;;;;;;;;;;;;;;10.85;62.95;98928.66;312242;31;5003;-73
2023/03/09 00:21:15;;;;;;;;;;;;;;;10.86;62.68;98940.81;312863;31;2743;-73
2023/03/09 00:21:49;;;;;;;;;;;;;;;10.85;62.81;98929.50;308965;32;899;-73
2023/03/09 00:22:00;;;;;;;;;;;;;;;10.85;62.77;98933.91;302467;32;5228;-74
2023/03/09 00:22:10;;;;;;;;;;;;;;;10.84;62.77;98932.22;305261;32;3994;-73
2023/03/09 00:22:21;;;;;;;;;;;;;;;10.85;62.93;98931.28;299020;32;5296;-74
2023/03/09 00:22:31;;;;;;;;;;;;;;;10.84;62.98;98934.81;298064;32;5865;-72
2023/03/09 00:22:41;;;;;;;;;;;;;;;10.84;63.19;98933.06;296409;32;6470;-74
2023/03/09 00:22:52;;;;;;;;;;;;;;;10.83;63.08;98926.13;298297;33;1251;-74
2023/03/09 00:23:08;;;;;;;;;;;;;;;10.83;63.26;98926.13;294927;32;6597;-73
2023/03/09 00:23:19;;;;;;;;;;;;;;;10.81;63.32;98933.25;293107;33;6050;-73
2023/03/09 00:23:29;;;;;;;;;;;;;;;10.81;63.23;98930.63;293280;33;6828;-73
2023/03/09 00:23:39;;;;;;;;;;;;;;;10.80;63.53;98926.31;297763;33;3974;-73
2023/03/09 00:23:49;;;;;;;;;;;;;;;10.80;63.55;98926.31;293267;33;4890;-73
2023/03/09 00:24:18;;;;;;;;;;;;;;;10.80;63.39;98926.31;296697;32;5202;-73
2023/03/09 00:24:29;;;;;;;;;;;;;;;10.82;63.22;98929.69;295352;32;7163;-72
2023/03/09 00:24:45;;;;;;;;;;;;;;;10.81;63.26;98922.78;294351;33;1308;-73
2023/03/09 00:24:56;;;;;;;;;;;;;;;10.80;63.06;98926.31;290959;33;4569;-74
2023/03/09 00:25:06;;;;;;;;;;;;;;;10.80;63.24;98926.31;289869;34;8818;-73
2023/03/09 00:25:17;;;;;;;;;;;;;;;10.80;63.27;98926.31;288241;33;8807;-74
2023/03/09 00:25:28;;;;;;;;;;;;;;;10.79;62.95;98929.84;289478;33;7866;-73
2023/03/09 00:25:39;;;;;;;;;;;;;;;10.80;63.05;98928.94;286865;34;5073;-73
2023/03/09 00:25:49;;;;;;;;;;;;;;;10.81;62.81;98933.25;281889;34;9010;-73
2023/03/09 00:26:03;;;;;;;;;;;;;;;10.81;62.71;98932.41;278580;35;7200;-73
2023/03/09 00:26:13;;;;;;;;;;;;;;;10.81;63.01;98932.41;277441;34;7899;-73
2023/03/09 00:26:24;;;;;;;;;;;;;;;10.81;62.87;98933.25;281983;35;1252;-73
2023/03/09 00:28:13;;;;;;;;;;;;;;;10.83;62.60;98936.59;2487116;27;19937;-74
2023/03/09 00:28:23;;;;;;;;;;;;;;;10.83;62.51;98928.75;350903;27;5025;-75
2023/03/09 00:28:33;;;;;;;;;;;;;;;10.83;62.44;98928.75;353357;27;1127;-74
2023/03/09 00:28:43;;;;;;;;;;;;;;;10.83;62.25;98923.50;349515;28;4415;-73
2023/03/09 00:28:54;;;;;;;;;;;;;;;10.84;62.41;98934.81;351927;28;918;-75
2023/03/09 00:29:05;;;;;;;;;;;;;;;10.81;62.42;98928.00;349709;28;3310;-73
2023/03/09 00:29:15;;;;;;;;;;;;;;;10.81;62.43;98928.00;348343;28;3557;-74
2023/03/09 00:29:25;;;;;;;;;;;;;;;10.81;62.56;98922.78;347402;28;3808;-74
2023/03/09 00:29:36;;;;;;;;;;;;;;;10.80;62.59;98926.31;349904;28;2771;-73
2023/03/09 00:29:46;;;;;;;;;;;;;;;10.81;62.52;98930.63;348266;28;3778;-73
2023/03/09 00:29:56;;;;;;;;;;;;;;;10.81;62.66;98930.63;351003;28;5163;-72
2023/03/09 00:30:08;;;;;;;;;;;;;;;10.82;62.56;98927.09;351980;28;3973;-72
2023/03/09 00:30:18;;;;;;;;;;;;;;;10.82;62.44;98934.94;351590;28;4815;-72
2023/03/09 00:30:28;;;;;;;;;;;;;;;10.82;62.73;98924.47;347809;28;3138;-72
2023/03/09 00:30:39;;;;;;;;;;;;;;;10.82;62.56;98928.84;346984;28;5013;-72
2023/03/09 00:30:49;;;;;;;;;;;;;;;10.81;62.89;98933.25;349306;28;932;-72
2023/03/09 00:31:00;;;;;;;;;;;;;;;10.81;62.82;98930.63;349846;28;3322;-72
2023/03/09 00:31:10;;;;;;;;;;;;;;;10.80;62.92;98936.78;350696;28;812;-74
2023/03/09 00:31:20;;;;;;;;;;;;;;;10.75;62.95;98927.47;350678;27;4420;-73
2023/03/09 00:31:31;;;;;;;;;;;;;;;10.75;63.23;98932.72;352001;28;1327;-73
2023/03/09 00:31:41;;;;;;;;;;;;;;;10.73;63.05;98930.19;352076;28;4569;-72
2023/03/09 00:31:52;;;;;;;;;;;;;;;10.73;63.18;98924.94;349373;28;4943;-72
2023/03/09 00:32:02;;;;;;;;;;;;;;;10.73;63.22;98930.19;350800;28;4012;-72
2023/03/09 00:32:12;;;;;;;;;;;;;;;10.71;63.35;98925.94;349402;28;4851;-72
2023/03/09 00:32:22;;;;;;;;;;;;;;;10.69;63.53;98922.56;347737;28;3725;-74
2023/03/09 00:32:33;;;;;;;;;;;;;;;10.66;63.81;98924.41;345262;28;4922;-74
2023/03/09 00:32:43;;;;;;;;;;;;;;;10.66;63.92;98926.19;347099;28;3732;-73
2023/03/09 00:32:53;;;;;;;;;;;;;;;10.63;64.00;98927.19;343445;28;4962;-73
2023/03/09 00:33:03;;;;;;;;;;;;;;;10.63;63.87;98923.72;345521;28;3837;-72
2023/03/09 00:33:13;;;;;;;;;;;;;;;10.60;63.88;98923.88;344936;28;4983;-72
2023/03/09 00:33:24;;;;;;;;;;;;;;;10.59;64.06;98916.97;346146;28;4356;-72
2023/03/09 00:33:34;;;;;;;;;;;;;;;10.58;64.21;98925.75;341958;28;4734;-72
2023/03/09 00:33:46;;;;;;;;;;;;;;;10.58;63.92;98920.50;342542;28;4218;-72
2023/03/09 00:33:56;;;;;;;;;;;;;;;10.58;63.76;98923.13;343400;28;3052;-73
2023/03/09 00:34:07;;;;;;;;;;;;;;;10.58;63.70;98915.28;339982;28;4147;-72
2023/03/09 00:34:17;;;;;;;;;;;;;;;10.58;64.25;98917.88;343263;28;2675;-73
2023/03/09 00:34:27;;;;;;;;;;;;;;;10.58;63.96;98923.13;340842;28;4370;-73
2023/03/09 00:34:38;;;;;;;;;;;;;;;10.58;63.98;98916.13;345089;28;5299;-72
2023/03/09 00:34:48;;;;;;;;;;;;;;;10.55;63.88;98911.03;344355;28;6921;-72
2023/03/09 00:34:58;;;;;;;;;;;;;;;10.55;63.95;98920.66;344909;28;1794;-72
2023/03/09 00:35:08;;;;;;;;;;;;;;;10.55;63.77;98918.03;342170;28;3500;-72
2023/03/09 00:35:19;;;;;;;;;;;;;;;10.56;63.63;98917.13;345240;28;1411;-72
2023/03/09 00:35:29;;;;;;;;;;;;;;;10.57;63.52;98924.03;344317;28;4418;-72
2023/03/09 00:35:39;;;;;;;;;;;;;;;10.57;63.56;98918.81;347586;28;3337;-72
2023/03/09 00:35:49;;;;;;;;;;;;;;;10.57;63.52;98919.66;342689;28;4286;-72
2023/03/09 00:35:59;;;;;;;;;;;;;;;10.59;63.40;98915.19;343572;28;5086;-73
2023/03/09 00:36:12;;;;;;;;;;;;;;;10.59;63.48;98919.56;342063;28;4631;-72
2023/03/09 00:36:22;;;;;;;;;;;;;;;10.61;63.47;98920.34;344319;28;5304;-74
2023/03/09 00:36:33;;;;;;;;;;;;;;;10.61;63.61;98918.56;341523;28;3973;-73
2023/03/09 00:36:43;;;;;;;;;;;;;;;10.62;63.39;98911.56;338666;29;3079;-73
2023/03/09 00:36:53;;;;;;;;;;;;;;;10.63;63.57;98913.25;334526;29;4582;-73
2023/03/09 00:37:04;;;;;;;;;;;;;;;10.64;62.97;98917.56;335303;29;5235;-73
2023/03/09 00:37:14;;;;;;;;;;;;;;;10.65;63.36;98921.88;338899;29;3976;-73
2023/03/09 00:37:24;;;;;;;;;;;;;;;10.65;63.16;98916.66;336357;29;3280;-73
2023/03/09 00:37:37;;;;;;;;;;;;;;;10.65;62.95;98919.25;336358;29;3643;-73
2023/03/09 00:37:47;;;;;;;;;;;;;;;10.66;63.03;98913.09;334243;29;5027;-73
2023/03/09 00:37:57;;;;;;;;;;;;;;;10.68;62.82;98924.34;335793;29;5267;-73
2023/03/09 00:38:08;;;;;;;;;;;;;;;10.69;62.93;98918.19;337652;29;1665;-73
2023/03/09 00:38:18;;;;;;;;;;;;;;;10.69;62.76;98918.19;336578;29;5373;-73
2023/03/09 00:38:28;;;;;;;;;;;;;;;10.70;62.79;98922.50;337167;29;909;-73
2023/03/09 00:38:38;;;;;;;;;;;;;;;10.70;62.82;98919.03;331488;29;4809;-73
2023/03/09 00:38:49;;;;;;;;;;;;;;;10.72;62.75;98923.25;333151;29;3094;-73
2023/03/09 00:39:00;;;;;;;;;;;;;;;10.72;62.83;98918.03;331466;29;4868;-73
2023/03/09 00:39:13;;;;;;;;;;;;;;;10.73;62.80;98924.09;330315;29;5368;-73
2023/03/09 00:39:23;;;;;;;;;;;;;;;10.73;62.78;98918.88;322058;30;5033;-72
2023/03/09 00:39:34;;;;;;;;;;;;;;;10.73;62.79;98919.72;325935;30;1286;-73
2023/03/09 00:39:44;;;;;;;;;;;;;;;10.72;63.15;98912.78;323924;30;4487;-73
2023/03/09 00:39:54;;;;;;;;;;;;;;;10.73;63.28;98921.47;323492;30;5347;-72
2023/03/09 00:40:09;;;;;;;;;;;;;;;10.72;63.08;98918.03;322237;30;6032;-73
2023/03/09 00:40:20;;;;;;;;;;;;;;;10.71;62.98;98916.31;324673;30;4114;-72
2023/03/09 00:40:30;;;;;;;;;;;;;;;10.73;63.08;98917.09;326076;30;5093;-72
2023/03/09 00:40:40;;;;;;;;;;;;;;;10.73;63.31;98911.84;332191;29;3898;-72
2023/03/09 00:40:50;;;;;;;;;;;;;;;10.73;63.13;98914.47;329121;29;5202;-72
2023/03/09 00:41:02;;;;;;;;;;;;;;;10.72;63.01;98912.78;327869;30;3974;-73
2023/03/09 00:41:13;;;;;;;;;;;;;;;10.72;63.14;98912.78;324680;30;5015;-72
2023/03/09 00:41:23;;;;;;;;;;;;;;;10.73;63.12;98914.47;325924;30;3585;-72
2023/03/09 00:41:34;;;;;;;;;;;;;;;10.72;63.14;98910.16;323910;30;5133;-73
2023/03/09 00:41:44;;;;;;;;;;;;;;;10.69;63.16;98912.94;321578;30;4662;-73
2023/03/09 00:41:54;;;;;;;;;;;;;;;10.66;63.13;98910.50;319605;30;6376;-72
2023/03/09 00:42:04;;;;;;;;;;;;;;;10.64;63.21;98907.09;320665;30;3990;-72
2023/03/09 00:42:14;;;;;;;;;;;;;;;10.64;63.02;98907.09;319472;30;5037;-73
2023/03/09 00:42:25;;;;;;;;;;;;;;;10.64;63.19;98917.56;320498;30;2641;-74
2023/03/09 00:42:38;;;;;;;;;;;;;;;10.60;63.21;98911.66;318069;30;3184;-73
2023/03/09 00:42:49;;;;;;;;;;;;;;;10.61;63.24;98904.66;315513;31;3252;-72
2023/03/09 00:42:59;;;;;;;;;;;;;;;10.59;63.39;98907.34;311288;31;4428;-73
2023/03/09 00:43:09;;;;;;;;;;;;;;;10.59;63.23;98912.56;311703;31;5603;-74
2023/03/09 00:43:19;;;;;;;;;;;;;;;10.60;63.08;98910.81;311882;31;3848;-72
2023/03/09 00:43:30;;;;;;;;;;;;;;;10.62;63.01;98911.56;315415;31;783;-72
2023/03/09 00:43:40;;;;;;;;;;;;;;;10.61;63.21;98910.72;307699;31;5077;-74
2023/03/09 00:43:50;;;;;;;;;;;;;;;10.63;63.07;98908.03;310183;31;2549;-73
2023/03/09 00:44:01;;;;;;;;;;;;;;;10.63;62.90;98908.03;312138;31;886;-73
2023/03/09 00:44:11;;;;;;;;;;;;;;;10.63;62.81;98908.03;309688;31;2439;-73
2023/03/09 00:44:21;;;;;;;;;;;;;;;10.63;63.14;98910.66;310006;31;3044;-73
2023/03/09 00:44:32;;;;;;;;;;;;;;;10.62;62.87;98908.97;311060;31;1164;-73
2023/03/09 00:44:42;;;;;;;;;;;;;;;10.61;63.01;98909.88;306488;32;1279;-73
2023/03/09 00:44:52;;;;;;;;;;;;;;;10.60;62.96;98914.28;305772;32;4705;-73
2023/03/09 00:45:03;;;;;;;;;;;;;;;10.60;63.11;98902.97;305888;31;4111;-74
2023/03/09 00:45:13;;;;;;;;;;;;;;;10.61;62.89;98904.66;305445;32;892;-73
2023/03/09 00:45:24;;;;;;;;;;;;;;;10.61;62.81;98910.72;304898;32;4357;-72
2023/03/09 00:45:34;;;;;;;;;;;;;;;10.62;62.98;98906.34;304612;32;4619;-73
2023/03/09 00:45:44;;;;;;;;;;;;;;;10.62;62.92;98914.19;305473;32;840;-77
2023/03/09 00:45:54;;;;;;;;;;;;;;;10.61;63.01;98902.03;303390;32;4644;-73
2023/03/09 00:46:04;;;;;;;;;;;;;;;10.63;63.04;98913.25;302531;32;3404;-73
2023/03/09 00:46:15;;;;;;;;;;;;;;;10.63;62.96;98902.78;304483;32;933;-74
2023/03/09 00:46:25;;;;;;;;;;;;;;;10.63;62.59;98911.50;302954;32;3225;-73
2023/03/09 00:46:35;;;;;;;;;;;;;;;10.63;62.86;98908.88;301354;32;3772;-73
2023/03/09 00:46:46;;;;;;;;;;;;;;;10.64;62.85;98907.09;302349;32;785;-73
2023/03/09 00:46:56;;;;;;;;;;;;;;;10.65;62.93;98911.41;303272;32;4745;-73
2023/03/09 00:47:06;;;;;;;;;;;;;;;10.64;62.89;98907.09;303388;32;6362;-73
2023/03/09 00:47:18;;;;;;;;;;;;;;;10.65;62.76;98908.78;302173;32;1376;-74
2023/03/09 00:47:28;;;;;;;;;;;;;;;10.64;62.69;98904.50;300241;32;1225;-73
2023/03/09 00:47:39;;;;;;;;;;;;;;;10.64;62.83;98907.09;299386;32;5691;-73
2023/03/09 00:47:49;;;;;;;;;;;;;;;10.64;62.70;98909.72;298913;32;6122;-73
2023/03/09 00:47:59;;;;;;;;;;;;;;;10.63;62.51;98908.03;300302;32;827;-73
2023/03/09 00:48:09;;;;;;;;;;;;;;;10.63;62.57;98913.25;298734;32;6014;-73
2023/03/09 00:48:20;;;;;;;;;;;;;;;10.63;62.55;98908.03;297656;32;4153;-73
2023/03/09 00:48:30;;;;;;;;;;;;;;;10.64;62.61;98909.72;299566;33;874;-73
2023/03/09 00:48:40;;;;;;;;;;;;;;;10.64;62.65;98909.72;295576;33;4902;-73
2023/03/09 00:48:51;;;;;;;;;;;;;;;10.64;62.41;98909.72;295396;32;5568;-73
2023/03/09 00:49:03;;;;;;;;;;;;;;;10.64;62.50;98904.50;296946;33;1401;-73
2023/03/09 00:49:13;;;;;;;;;;;;;;;10.63;62.44;98911.50;292711;33;4484;-72
2023/03/09 00:49:24;;;;;;;;;;;;;;;10.63;62.26;98910.66;292415;33;8199;-72
2023/03/09 00:49:34;;;;;;;;;;;;;;;10.63;62.24;98908.03;293876;33;7154;-72
2023/03/09 00:49:44;;;;;;;;;;;;;;;10.62;62.34;98907.19;295902;33;1697;-75
2023/03/09 00:49:54;;;;;;;;;;;;;;;10.64;62.31;98907.09;291865;33;8184;-74
2023/03/09 00:50:06;;;;;;;;;;;;;;;10.63;62.43;98908.03;293029;33;8247;-74
2023/03/09 00:50:16;;;;;;;;;;;;;;;10.64;62.07;98901.88;291256;33;4755;-72
2023/03/09 00:50:27;;;;;;;;;;;;;;;10.65;62.17;98908.78;290067;33;8759;-73
2023/03/09 00:50:37;;;;;;;;;;;;;;;10.65;62.22;98909.63;288106;33;5857;-72
2023/03/09 00:50:47;;;;;;;;;;;;;;;10.65;62.23;98906.19;288886;34;6592;-72
2023/03/09 00:50:59;;;;;;;;;;;;;;;10.62;62.64;98901.94;287479;34;3284;-72
2023/03/09 00:51:09;;;;;;;;;;;;;;;10.64;62.39;98907.09;286478;34;7925;-74
2023/03/09 00:51:19;;;;;;;;;;;;;;;10.63;62.21;98903.63;283512;34;9622;-72
2023/03/09 00:51:30;;;;;;;;;;;;;;;10.64;62.56;98901.88;287279;34;3318;-72
2023/03/09 00:53:09;;;;;;;;;;;;;;;10.60;62.48;98908.19;2484842;27;19927;-72
2023/03/09 00:53:20;;;;;;;;;;;;;;;10.59;62.56;98907.34;354336;27;3934;-72
2023/03/09 00:53:30;;;;;;;;;;;;;;;10.58;62.43;98910.88;351668;27;4661;-74
2023/03/09 00:53:40;;;;;;;;;;;;;;;10.58;62.61;98905.66;352393;28;883;-72
2023/03/09 00:53:50;;;;;;;;;;;;;;;10.56;62.47;98907.50;348838;28;4247;-72
2023/03/09 00:54:01;;;;;;;;;;;;;;;10.58;62.49;98904.81;349098;28;3273;-72
2023/03/09 00:54:12;;;;;;;;;;;;;;;10.57;62.56;98908.34;345315;28;6571;-72
2023/03/09 00:54:22;;;;;;;;;;;;;;;10.57;62.23;98898.72;348942;28;4074;-73
2023/03/09 00:54:32;;;;;;;;;;;;;;;10.58;62.44;98904.81;348134;28;4898;-73
2023/03/09 00:54:43;;;;;;;;;;;;;;;10.58;62.43;98905.66;349051;28;4013;-73
2023/03/09 00:54:53;;;;;;;;;;;;;;;10.58;62.31;98907.41;349567;28;5258;-73
2023/03/09 00:55:03;;;;;;;;;;;;;;;10.58;62.30;98900.41;350864;28;3977;-74
2023/03/09 00:55:14;;;;;;;;;;;;;;;10.59;62.37;98906.50;351209;27;3216;-73
2023/03/09 00:55:24;;;;;;;;;;;;;;;10.59;62.46;98901.25;349716;28;2844;-73
2023/03/09 00:55:34;;;;;;;;;;;;;;;10.59;62.30;98902.09;351357;28;1001;-73
2023/03/09 00:55:44;;;;;;;;;;;;;;;10.60;62.05;98905.56;350526;28;3475;-73
2023/03/09 00:55:54;;;;;;;;;;;;;;;10.61;62.11;98894.19;350682;28;801;-73
2023/03/09 00:56:06;;;;;;;;;;;;;;;10.63;62.19;98902.78;346658;28;3582;-73
2023/03/09 00:56:17;;;;;;;;;;;;;;;10.63;62.26;98900.19;349112;28;5283;-73
2023/03/09 00:56:29;;;;;;;;;;;;;;;10.63;61.95;98908.03;348646;28;4713;-72
2023/03/09 00:56:40;;;;;;;;;;;;;;;10.64;62.08;98901.88;349214;28;1539;-74
2023/03/09 00:56:50;;;;;;;;;;;;;;;10.64;62.17;98904.50;349076;28;4266;-73
2023/03/09 00:57:01;;;;;;;;;;;;;;;10.64;62.00;98901.88;349439;28;4851;-74
2023/03/09 00:57:12;;;;;;;;;;;;;;;10.64;62.12;98894.88;347992;28;5113;-73
2023/03/09 00:57:22;;;;;;;;;;;;;;;10.64;62.18;98894.88;349016;28;6242;-73
2023/03/09 00:57:34;;;;;;;;;;;;;;;10.64;62.33;98894.88;348689;28;3918;-73
2023/03/09 00:57:44;;;;;;;;;;;;;;;10.64;62.30;98896.63;348343;28;4968;-73
2023/03/09 00:57:54;;;;;;;;;;;;;;;10.64;61.86;98900.09;347801;28;3919;-73
2023/03/09 00:58:04;;;;;;;;;;;;;;;10.64;62.02;98902.72;347335;28;4546;-73
2023/03/09 00:58:15;;;;;;;;;;;;;;;10.64;61.98;98894.03;348179;28;3808;-73
2023/03/09 00:58:25;;;;;;;;;;;;;;;10.64;61.87;98896.63;344696;28;4836;-73
2023/03/09 00:58:35;;;;;;;;;;;;;;;10.65;62.04;98898.31;344453;28;3628;-73
2023/03/09 00:58:45;;;;;;;;;;;;;;;10.64;61.99;98899.25;342241;28;4847;-73
2023/03/09 00:58:56;;;;;;;;;;;;;;;10.62;62.13;98894.09;343648;28;3621;-73
2023/03/09 00:59:06;;;;;;;;;;;;;;;10.61;61.77;98892.41;341684;28;4622;-73
2023/03/09 00:59:16;;;;;;;;;;;;;;;10.62;61.99;98893.25;342960;28;3762;-73
2023/03/09 00:59:27;;;;;;;;;;;;;;;10.61;61.92;98889.78;341517;28;4946;-73
2023/03/09 00:59:37;;;;;;;;;;;;;;;10.62;61.98;98890.63;342218;28;1296;-73
2023/03/09 00:59:47;;;;;;;;;;;;;;;10.62;61.80;98901.94;339613;28;5267;-73
2023/03/09 00:59:57;;;;;;;;;;;;;;;10.62;61.96;98891.47;342457;28;1228;-73
2023/03/09 01:00:08;;;;;;;;;;;;;;;10.62;61.98;98890.63;338940;28;6856;-73
2023/03/09 01:00:18;;;;;;;;;;;;;;;10.63;61.77;98898.41;340701;29;4016;-73
2023/03/09 01:00:32;;;;;;;;;;;;;;;10.64;61.75;98888.78;338936;28;5039;-73
2023/03/09 01:00:42;;;;;;;;;;;;;;;10.63;62.00;98892.31;337885;29;3792;-73
2023/03/09 01:00:52;;;;;;;;;;;;;;;10.63;61.67;98890.56;337429;29;4993;-73
2023/03/09 01:01:07;;;;;;;;;;;;;;;10.63;61.82;98892.31;340683;28;3935;-73
2023/03/09 01:01:18;;;;;;;;;;;;;;;10.64;61.78;98889.63;340990;29;1499;-72
2023/03/09 01:01:28;;;;;;;;;;;;;;;10.64;61.78;98892.25;338489;29;4151;-73
2023/03/09 01:01:38;;;;;;;;;;;;;;;10.66;61.56;98897.41;337441;29;3343;-73
2023/03/09 01:01:48;;;;;;;;;;;;;;;10.65;61.57;98890.47;335909;29;4505;-73
2023/03/09 01:01:59;;;;;;;;;;;;;;;10.66;61.59;98894.78;335208;29;5139;-73
2023/03/09 01:02:09;;;;;;;;;;;;;;;10.66;61.81;98892.16;329817;29;5067;-73
2023/03/09 01:02:19;;;;;;;;;;;;;;;10.65;61.42;98895.72;334088;29;4845;-73
2023/03/09 01:02:30;;;;;;;;;;;;;;;10.65;61.64;98886.09;335306;29;4713;-72